createdAt,value
2022-09-04T00:00:08.466Z,9.00
2022-09-04T00:02:40.875Z,10.05
2022-09-04T00:05:24.032Z,10.90
2022-09-04T00:08:14.105Z,10.77
2022-09-04T00:10:47.436Z,10.13
2022-09-04T00:13:27.564Z,10.25
2022-09-04T00:16:05.221Z,10.98
2022-09-04T00:18:46.696Z,12.15
2022-09-04T00:23:54.732Z,13.27
2022-09-04T00:26:40.997Z,13.40
2022-09-04T00:29:36.399Z,13.05
2022-09-04T00:32:21.691Z,14.93
2022-09-04T00:35:08.277Z,15.25
2022-09-04T00:37:46.914Z,14.82
2022-09-04T00:40:31.204Z,15.57
2022-09-04T00:43:19.941Z,16.45
2022-09-04T00:46:13.853Z,15.60
2022-09-04T00:48:49.551Z,15.88
2022-09-04T00:51:41.328Z,16.67
2022-09-04T00:54:29.645Z,15.80
2022-09-04T00:57:24.428Z,17.23
2022-09-04T01:00:30.803Z,15.70
2022-09-04T01:03:34.298Z,16.30
2022-09-04T01:06:55.400Z,17.20
2022-09-04T01:09:49.320Z,17.33
2022-09-04T01:12:21.722Z,18.08
2022-09-04T01:15:00.969Z,16.77
2022-09-04T01:17:38.930Z,18.23
2022-09-04T01:20:14.473Z,17.13
2022-09-04T01:23:02.624Z,17.25
2022-09-04T01:25:48.122Z,18.05
2022-09-04T01:28:48.550Z,17.27
2022-09-04T01:31:36.926Z,18.15
2022-09-04T01:34:40.834Z,18.00
2022-09-04T01:37:47.070Z,15.88
2022-09-04T01:40:43.862Z,16.77
2022-09-04T01:43:21.153Z,17.77
2022-09-04T01:46:26.465Z,16.50
2022-09-04T01:49:30.713Z,17.50
2022-09-04T01:52:03.933Z,16.55
2022-09-04T01:54:37.785Z,18.45
2022-09-04T01:57:23.352Z,19.23
2022-09-04T02:00:05.872Z,21.58
2022-09-04T02:03:10.188Z,20.83
2022-09-04T02:05:58.178Z,20.58
2022-09-04T02:08:48.878Z,21.73
2022-09-04T02:11:28.080Z,24.30
2022-09-04T02:14:19.714Z,22.23
2022-09-04T02:17:32.662Z,23.35
2022-09-04T02:20:25.479Z,25.35
2022-09-04T02:23:07.636Z,23.10
2022-09-04T02:25:45.986Z,23.45
2022-09-04T02:28:37.031Z,23.10
2022-09-04T02:31:22.439Z,22.67
2022-09-04T02:34:13.180Z,22.15
2022-09-04T02:36:45.613Z,20.55
2022-09-04T02:39:39.424Z,20.60
2022-09-04T02:42:32.237Z,20.98
2022-09-04T02:45:43.978Z,21.25
2022-09-04T02:48:35.092Z,22.55
2022-09-04T02:51:48.719Z,22.85
2022-09-04T02:54:30.155Z,23.00
2022-09-04T02:57:34.116Z,20.88
2022-09-04T03:00:21.213Z,23.17
2022-09-04T03:03:21.005Z,21.98
2022-09-04T03:05:58.942Z,21.67
2022-09-04T03:08:53.937Z,22.40
2022-09-04T03:11:33.340Z,21.27
2022-09-04T03:14:10.382Z,22.40
2022-09-04T03:17:08.423Z,23.00
2022-09-04T03:19:49.312Z,22.23
2022-09-04T03:22:24.454Z,21.95
2022-09-04T03:25:11.963Z,21.58
2022-09-04T03:27:38.837Z,20.48
2022-09-04T03:30:07.271Z,21.85
2022-09-04T03:32:46.148Z,21.98
2022-09-04T03:35:44.736Z,21.77
2022-09-04T03:38:38.266Z,21.70
2022-09-04T03:41:11.181Z,23.05
2022-09-04T03:44:03.207Z,21.35
2022-09-04T03:47:01.596Z,20.70
2022-09-04T03:49:44.153Z,20.65
2022-09-04T03:52:36.771Z,19.92
2022-09-04T03:55:09.000Z,21.33
2022-09-04T03:57:45.208Z,22.90
2022-09-04T04:00:19.885Z,21.77
2022-09-04T04:02:55.343Z,21.20
2022-09-04T04:05:44.802Z,21.27
2022-09-04T04:08:48.332Z,20.75
2022-09-04T04:11:43.305Z,20.08
2022-09-04T04:14:38.304Z,21.90
2022-09-04T04:17:31.905Z,21.17
2022-09-04T04:20:24.361Z,21.05
2022-09-04T04:23:10.824Z,21.98
2022-09-04T04:25:52.259Z,21.85
2022-09-04T04:28:35.955Z,22.42
2022-09-04T04:31:26.809Z,24.90
2022-09-04T04:34:20.576Z,22.87
2022-09-04T04:36:59.303Z,23.55
2022-09-04T04:39:55.619Z,22.55
2022-09-04T04:42:47.610Z,21.40
2022-09-04T04:45:51.544Z,21.52
2022-09-04T04:48:45.038Z,21.80
2022-09-04T04:51:59.173Z,23.10
2022-09-04T04:54:31.927Z,24.80
2022-09-04T04:57:18.420Z,24.08
2022-09-04T05:00:07.392Z,24.83
2022-09-04T05:02:55.447Z,24.55
2022-09-04T05:06:13.909Z,23.92
2022-09-04T05:08:52.454Z,23.15
2022-09-04T05:11:34.274Z,24.65
2022-09-04T05:14:28.043Z,23.27
2022-09-04T05:17:14.197Z,24.08
2022-09-04T05:19:50.195Z,23.90
2022-09-04T05:22:34.413Z,24.58
2022-09-04T05:25:10.108Z,24.65
2022-09-04T05:27:58.989Z,25.27
2022-09-04T05:30:44.185Z,24.85
2022-09-04T05:33:10.905Z,23.55
2022-09-04T05:35:50.104Z,24.75
2022-09-04T05:38:41.149Z,23.42
2022-09-04T05:41:18.078Z,24.13
2022-09-04T05:44:05.540Z,23.65
2022-09-04T05:46:58.923Z,25.08
2022-09-04T05:49:47.515Z,24.92
2022-09-04T05:52:34.681Z,25.15
2022-09-04T05:55:07.413Z,25.60
2022-09-04T05:58:12.444Z,25.33
2022-09-04T06:00:55.830Z,26.50
2022-09-04T06:03:30.188Z,24.98
2022-09-04T06:06:11.236Z,26.33
2022-09-04T06:08:40.772Z,25.92
2022-09-04T06:11:33.527Z,27.23
2022-09-04T06:14:45.004Z,26.88
2022-09-04T06:17:42.686Z,26.83
2022-09-04T06:20:20.862Z,27.35
2022-09-04T06:23:03.045Z,27.92
2022-09-04T06:25:59.062Z,29.13
2022-09-04T06:28:49.070Z,29.80
2022-09-04T06:31:21.813Z,30.52
2022-09-04T06:34:15.196Z,29.77
2022-09-04T06:37:02.985Z,30.98
2022-09-04T06:40:05.130Z,29.42
2022-09-04T06:43:02.022Z,32.28
2022-09-04T06:46:07.359Z,33.53
2022-09-04T06:49:01.447Z,32.97
2022-09-04T06:51:35.264Z,33.78
2022-09-04T06:54:15.923Z,39.53
2022-09-04T06:57:09.903Z,38.17
2022-09-04T06:59:48.486Z,39.70
2022-09-04T07:02:59.554Z,39.88
2022-09-04T07:05:44.283Z,41.80
2022-09-04T07:08:29.554Z,41.00
2022-09-04T07:11:25.069Z,39.72
2022-09-04T07:14:16.573Z,41.00
2022-09-04T07:16:55.865Z,41.22
2022-09-04T07:19:58.535Z,41.20
2022-09-04T07:22:52.994Z,41.30
2022-09-04T07:25:26.330Z,44.65
2022-09-04T07:28:20.419Z,46.05
2022-09-04T07:31:03.698Z,42.83
2022-09-04T07:33:39.339Z,43.92
2022-09-04T07:36:16.713Z,49.53
2022-09-04T07:38:57.038Z,48.47
2022-09-04T07:41:38.579Z,60.47
2022-09-04T07:44:24.434Z,61.58
2022-09-04T07:47:12.075Z,63.63
2022-09-04T07:50:17.775Z,68.43
2022-09-04T07:53:16.913Z,67.72
2022-09-04T07:55:51.258Z,75.78
2022-09-04T07:58:54.480Z,79.72
2022-09-04T08:01:54.453Z,81.60
2022-09-04T08:04:25.771Z,83.22
2022-09-04T08:09:53.908Z,81.65
2022-09-04T08:12:56.356Z,87.53
2022-09-04T08:15:40.939Z,84.45
2022-09-04T08:18:47.780Z,81.88
2022-09-04T08:21:42.503Z,78.95
2022-09-04T08:24:18.147Z,79.82
2022-09-04T08:27:14.674Z,82.95
2022-09-04T08:29:55.797Z,81.55
2022-09-04T08:32:46.819Z,78.90
2022-09-04T08:35:40.674Z,80.97
2022-09-04T08:38:25.917Z,75.35
2022-09-04T08:41:20.075Z,68.38
2022-09-04T08:44:04.468Z,77.32
2022-09-04T08:47:01.640Z,79.35
2022-09-04T08:50:03.464Z,73.22
2022-09-04T08:52:54.559Z,73.78
2022-09-04T08:55:58.629Z,73.57
2022-09-04T08:58:34.577Z,65.95
2022-09-04T09:01:40.836Z,57.63
2022-09-04T09:04:19.765Z,55.60
2022-09-04T09:07:14.051Z,61.25
2022-09-04T09:10:01.810Z,64.50
2022-09-04T09:12:41.324Z,58.78
2022-09-04T09:15:24.443Z,60.33
2022-09-04T09:18:35.762Z,51.75
2022-09-04T09:21:12.309Z,52.97
2022-09-04T09:23:56.757Z,52.75
2022-09-04T09:26:26.511Z,56.90
2022-09-04T09:28:59.395Z,56.15
2022-09-04T09:31:55.409Z,52.92
2022-09-04T09:34:23.926Z,46.50
2022-09-04T09:37:12.554Z,44.88
2022-09-04T09:39:42.055Z,43.40
2022-09-04T09:42:49.385Z,43.35
2022-09-04T09:45:23.147Z,40.10
2022-09-04T09:48:11.997Z,38.22
2022-09-04T09:50:49.055Z,39.80
2022-09-04T09:53:58.455Z,28.00
2022-09-04T09:56:36.603Z,38.90
2022-09-04T09:59:48.442Z,39.10
2022-09-04T10:02:43.510Z,34.45
2022-09-04T10:05:16.147Z,32.35
2022-09-04T10:08:13.674Z,35.05
2022-09-04T10:10:52.326Z,33.13
2022-09-04T10:13:38.048Z,38.13
2022-09-04T10:16:28.029Z,37.10
2022-09-04T10:19:18.999Z,38.05
2022-09-04T10:22:16.949Z,36.58
2022-09-04T10:25:23.836Z,33.60
2022-09-04T10:28:27.518Z,37.28
2022-09-04T10:31:26.985Z,38.40
2022-09-04T10:34:19.239Z,39.20
2022-09-04T10:37:30.116Z,37.47
2022-09-04T10:40:37.629Z,35.70
2022-09-04T10:43:38.735Z,32.85
2022-09-04T10:46:08.441Z,35.53
2022-09-04T10:48:59.930Z,32.55
2022-09-04T10:52:06.421Z,28.27
2022-09-04T10:54:48.189Z,29.95
2022-09-04T10:57:27.709Z,30.20
2022-09-04T11:00:03.376Z,31.42
2022-09-04T11:02:42.596Z,31.95
2022-09-04T11:05:27.863Z,30.55
2022-09-04T11:07:58.285Z,29.23
2022-09-04T11:10:36.333Z,28.50
2022-09-04T11:13:09.294Z,31.90
2022-09-04T11:15:59.836Z,29.65
2022-09-04T11:18:38.102Z,31.75
2022-09-04T11:21:41.908Z,29.98
2022-09-04T11:24:35.266Z,25.38
2022-09-04T11:27:25.144Z,27.27
2022-09-04T11:30:20.940Z,27.13
2022-09-04T11:32:53.570Z,19.17
2022-09-04T11:35:51.939Z,17.42
2022-09-04T11:39:15.298Z,20.55
2022-09-04T11:42:09.604Z,29.50
2022-09-04T11:45:16.762Z,27.98
2022-09-04T11:48:09.320Z,26.40
2022-09-04T11:51:16.446Z,25.58
2022-09-04T11:54:00.996Z,26.63
2022-09-04T11:57:04.264Z,20.23
2022-09-04T12:00:01.774Z,20.85
2022-09-04T12:03:08.439Z,20.65
2022-09-04T12:06:09.439Z,18.27
2022-09-04T12:08:54.151Z,18.42
2022-09-04T12:12:08.161Z,19.05
2022-09-04T12:15:08.580Z,12.95
2022-09-04T12:18:17.039Z,12.18
2022-09-04T12:20:55.439Z,13.00
2022-09-04T12:23:35.809Z,10.75
2022-09-04T12:26:12.653Z,10.13
2022-09-04T12:28:47.631Z,10.77
2022-09-04T12:31:43.924Z,11.55
2022-09-04T12:34:34.035Z,10.20
2022-09-04T12:37:43.576Z,9.25
2022-09-04T12:40:31.759Z,12.30
2022-09-04T12:43:36.880Z,11.75
2022-09-04T12:46:26.690Z,10.15
2022-09-04T12:49:34.836Z,8.75
2022-09-04T12:52:45.892Z,9.90
2022-09-04T12:55:38.323Z,8.38
2022-09-04T12:58:26.284Z,8.50
2022-09-04T13:01:08.564Z,9.52
2022-09-04T13:03:44.730Z,8.20
2022-09-04T13:06:29.088Z,7.97
2022-09-04T13:08:56.570Z,7.63
2022-09-04T13:11:40.442Z,9.23
2022-09-04T13:14:57.590Z,8.27
2022-09-04T13:17:58.446Z,7.78
2022-09-04T13:20:40.336Z,6.43
2022-09-04T13:23:26.891Z,6.68
2022-09-04T13:26:12.945Z,6.03
2022-09-04T13:28:55.325Z,6.45
2022-09-04T13:31:33.508Z,5.90
2022-09-04T13:34:17.472Z,5.85
2022-09-04T13:37:21.228Z,8.13
2022-09-04T13:39:50.939Z,7.90
2022-09-04T13:42:23.234Z,8.80
2022-09-04T13:45:02.172Z,6.88
2022-09-04T13:47:51.858Z,5.07
2022-09-04T13:50:32.609Z,6.00
2022-09-04T13:53:22.951Z,5.40
2022-09-04T13:55:57.322Z,5.18
2022-09-04T13:58:38.453Z,4.40
2022-09-04T14:01:11.003Z,5.05
2022-09-04T14:03:52.959Z,4.70
2022-09-04T14:06:23.461Z,5.35
2022-09-04T14:09:05.540Z,4.50
2022-09-04T14:11:39.348Z,4.78
2022-09-04T14:14:41.325Z,4.55
2022-09-04T14:17:09.346Z,4.70
2022-09-04T14:19:57.716Z,4.75
2022-09-04T14:22:56.328Z,4.18
2022-09-04T14:25:37.771Z,4.78
2022-09-04T14:28:10.951Z,4.70
2022-09-04T14:30:52.806Z,5.20
2022-09-04T14:33:44.243Z,5.22
2022-09-04T14:36:42.170Z,5.07
2022-09-04T14:39:56.108Z,5.88
2022-09-04T14:42:43.993Z,6.13
2022-09-04T14:45:31.155Z,6.07
2022-09-04T14:48:03.733Z,6.10
2022-09-04T14:50:34.309Z,6.18
2022-09-04T14:53:08.422Z,6.18
2022-09-04T14:55:42.079Z,6.38
2022-09-04T14:58:21.752Z,6.32
2022-09-04T15:01:07.218Z,5.80
2022-09-04T15:03:58.263Z,6.20
2022-09-04T15:09:35.048Z,5.47
2022-09-04T15:12:36.698Z,5.13
2022-09-04T15:15:21.129Z,5.53
2022-09-04T15:18:15.836Z,5.60
2022-09-04T15:20:58.497Z,5.75
2022-09-04T15:23:36.050Z,5.20
2022-09-04T15:26:12.394Z,5.45
2022-09-04T15:28:50.165Z,5.50
2022-09-04T15:31:21.731Z,5.60
2022-09-04T15:33:49.197Z,5.10
2022-09-04T15:36:20.816Z,5.40
2022-09-04T15:38:53.795Z,5.00
2022-09-04T15:41:42.170Z,5.15
2022-09-04T15:44:20.191Z,5.45
2022-09-04T15:47:13.108Z,8.57
2022-09-04T15:50:04.440Z,11.50
2022-09-04T15:52:58.541Z,11.82
2022-09-04T15:55:31.032Z,12.48
2022-09-04T15:58:22.948Z,12.05
2022-09-04T16:01:19.202Z,12.88
2022-09-04T16:04:01.347Z,13.75
2022-09-04T16:06:34.599Z,13.23
2022-09-04T16:09:25.707Z,12.68
2022-09-04T16:17:47.073Z,12.45
2022-09-04T16:20:36.281Z,14.90
2022-09-04T16:23:08.491Z,15.05
2022-09-04T16:25:39.720Z,15.07
2022-09-04T16:28:12.280Z,13.90
2022-09-04T16:30:50.810Z,12.85
2022-09-04T16:33:30.099Z,7.63
2022-09-04T16:36:04.946Z,7.63
2022-09-04T16:39:03.455Z,10.70
2022-09-04T16:41:35.316Z,8.95
2022-09-04T16:44:22.129Z,7.13
2022-09-04T16:47:04.729Z,8.05
2022-09-04T16:49:52.643Z,11.45
2022-09-04T16:52:40.254Z,7.70
2022-09-04T16:55:21.527Z,9.65
2022-09-04T16:58:07.131Z,9.30
2022-09-04T17:01:13.843Z,10.00
2022-09-04T17:04:12.574Z,9.13
2022-09-04T17:07:02.859Z,8.55
2022-09-04T17:09:44.281Z,10.48
2022-09-04T17:12:35.183Z,10.23
2022-09-04T17:15:23.227Z,10.07
2022-09-04T17:17:53.749Z,10.98
2022-09-04T17:20:50.293Z,11.80
2022-09-04T17:29:00.320Z,13.50
2022-09-04T17:29:09.738Z,11.02
2022-09-04T17:29:41.698Z,10.73
2022-09-04T17:37:13.314Z,9.55
2022-09-04T17:40:35.641Z,8.88
2022-09-04T17:40:39.728Z,7.57
2022-09-04T17:41:39.508Z,9.00
2022-09-04T17:44:19.684Z,7.50
2022-09-04T17:46:57.824Z,5.95
2022-09-04T17:49:34.725Z,6.00
2022-09-04T17:52:11.608Z,3.58
2022-09-04T17:54:43.080Z,2.65
2022-09-04T17:57:28.818Z,2.88
2022-09-04T18:00:09.153Z,3.40
2022-09-04T18:02:42.654Z,3.33
2022-09-04T18:05:18.887Z,2.70
2022-09-04T18:08:09.885Z,3.35
2022-09-04T18:11:07.952Z,2.80
2022-09-04T18:14:03.301Z,3.28
2022-09-04T18:16:36.051Z,2.67
2022-09-04T18:19:20.921Z,2.60
2022-09-04T18:22:25.644Z,2.70
2022-09-04T18:25:17.280Z,3.88
2022-09-04T18:28:11.654Z,4.00
2022-09-04T18:37:09.858Z,4.50
2022-09-04T18:37:21.164Z,5.10
2022-09-04T18:37:44.317Z,5.88
2022-09-04T18:44:44.525Z,6.35
2022-09-04T18:50:32.849Z,8.70
2022-09-04T18:50:34.794Z,13.80
2022-09-04T18:50:35.602Z,10.55
2022-09-04T18:52:06.228Z,12.80
2022-09-04T18:54:45.987Z,11.65
2022-09-04T18:57:56.034Z,14.10
2022-09-04T19:00:41.027Z,14.88
2022-09-04T19:03:23.264Z,14.38
2022-09-04T19:05:56.655Z,14.15
2022-09-04T19:08:31.791Z,14.32
2022-09-04T19:11:20.334Z,16.65
2022-09-04T19:13:50.466Z,15.48
2022-09-04T19:16:28.837Z,15.38
2022-09-04T19:19:31.827Z,18.10
2022-09-04T19:22:28.324Z,18.67
2022-09-04T19:25:21.693Z,19.02
2022-09-04T19:27:56.605Z,18.52
2022-09-04T19:30:26.619Z,19.67
2022-09-04T19:33:06.847Z,19.17
2022-09-04T19:35:45.337Z,20.20
2022-09-04T19:45:56.102Z,21.02
2022-09-04T19:46:03.051Z,24.37
2022-09-04T19:47:47.645Z,23.05
2022-09-04T19:53:20.305Z,23.52
2022-09-04T19:53:37.988Z,29.17
2022-09-04T19:59:04.478Z,26.40
2022-09-04T20:01:50.888Z,28.90
2022-09-04T20:04:43.009Z,28.63
2022-09-04T20:07:16.592Z,26.80
2022-09-04T20:09:43.344Z,29.00
2022-09-04T20:12:21.316Z,28.60
2022-09-04T20:15:14.493Z,29.63
2022-09-04T20:17:47.349Z,31.60
2022-09-04T20:20:29.092Z,30.00
2022-09-04T20:23:02.257Z,30.20
2022-09-04T20:26:10.263Z,33.10
2022-09-04T20:28:51.862Z,33.72
2022-09-04T20:31:38.955Z,36.63
2022-09-04T20:34:17.743Z,35.58
2022-09-04T20:36:51.605Z,34.63
2022-09-04T20:39:41.433Z,33.63
2022-09-04T20:42:33.481Z,31.58
2022-09-04T20:47:17.586Z,30.65
2022-09-04T20:52:53.517Z,30.88
2022-09-04T20:54:17.440Z,29.77
2022-09-04T20:58:52.368Z,33.25
2022-09-04T21:03:22.137Z,35.28
2022-09-04T21:06:16.764Z,31.85
2022-09-04T21:09:13.172Z,33.75
2022-09-04T21:11:45.120Z,32.20
2022-09-04T21:14:45.881Z,32.42
2022-09-04T21:17:42.558Z,31.58
2022-09-04T21:20:12.087Z,33.80
2022-09-04T21:23:16.306Z,36.58
2022-09-04T21:25:51.591Z,36.30
2022-09-04T21:29:09.109Z,36.42
2022-09-04T21:32:04.009Z,35.88
2022-09-04T21:35:03.765Z,36.65
2022-09-04T21:38:05.220Z,39.08
2022-09-04T21:41:04.306Z,36.33
2022-09-04T21:44:02.502Z,34.55
2022-09-04T21:47:08.360Z,34.08
2022-09-04T21:50:10.708Z,33.17
2022-09-04T21:52:52.993Z,33.50
2022-09-04T22:01:46.849Z,33.30
2022-09-04T22:02:35.906Z,35.67
2022-09-04T22:02:42.420Z,33.25
2022-09-04T22:04:45.020Z,30.73
2022-09-04T22:13:27.142Z,32.72
2022-09-04T22:13:28.352Z,34.10
2022-09-04T22:13:57.989Z,33.47
2022-09-04T22:17:03.273Z,33.38
2022-09-04T22:19:29.994Z,32.33
2022-09-04T22:22:24.285Z,33.17
2022-09-04T22:25:25.589Z,33.28
2022-09-04T22:28:23.023Z,30.98
2022-09-04T22:30:59.259Z,30.80
2022-09-04T22:33:48.481Z,30.52
2022-09-04T22:36:42.097Z,29.85
2022-09-04T22:39:52.435Z,28.33
2022-09-04T22:42:50.226Z,26.58
2022-09-04T22:45:29.039Z,24.15
2022-09-04T22:48:08.027Z,23.92
2022-09-04T22:50:50.387Z,20.42
2022-09-04T22:53:59.814Z,24.13
2022-09-04T22:56:44.748Z,20.52
2022-09-04T22:59:26.642Z,20.67
2022-09-04T23:02:13.366Z,18.83
2022-09-04T23:04:58.871Z,20.42
2022-09-04T23:13:22.042Z,17.75
2022-09-04T23:13:49.990Z,17.80
2022-09-04T23:13:58.176Z,17.95
2022-09-04T23:16:28.271Z,16.33
2022-09-04T23:22:35.524Z,15.68
2022-09-04T23:26:41.904Z,13.35
2022-09-04T23:26:46.816Z,15.02
2022-09-04T23:29:15.886Z,13.43
2022-09-04T23:32:10.075Z,14.85
2022-09-04T23:34:50.752Z,11.48
2022-09-04T23:37:42.071Z,9.40
2022-09-04T23:40:26.597Z,8.30
2022-09-04T23:43:04.238Z,8.93
2022-09-04T23:46:01.732Z,10.03
2022-09-04T23:48:37.230Z,8.98
2022-09-04T23:51:30.533Z,8.00
2022-09-04T23:54:24.600Z,7.38
2022-09-04T23:57:08.094Z,7.72
2022-09-04T23:59:57.544Z,7.53
